createdAt,value
2018-02-04T06:05:47.057Z,22.40
2018-02-04T06:08:13.456Z,24.77
2018-02-04T06:10:39.878Z,23.27
2018-02-04T06:13:06.277Z,24.90
2018-02-04T06:15:32.698Z,22.95
2018-02-04T06:17:59.074Z,23.70
2018-02-04T06:20:25.537Z,23.33
2018-02-04T06:22:52.014Z,23.07
2018-02-04T06:25:18.593Z,23.38
2018-02-04T06:27:45.068Z,24.25
2018-02-04T06:30:11.517Z,23.60
2018-02-04T06:32:38.122Z,22.62
2018-02-04T06:35:05.354Z,22.65
2018-02-04T06:37:31.858Z,22.45
2018-02-04T06:39:58.259Z,23.65
2018-02-04T06:42:25.414Z,23.83
2018-02-04T06:44:52.582Z,22.62
2018-02-04T06:47:19.105Z,23.67
2018-02-04T06:49:46.250Z,25.45
2018-02-04T06:52:13.421Z,23.80
2018-02-04T06:54:39.821Z,23.55
2018-02-04T06:57:06.254Z,23.58
2018-02-04T06:59:32.674Z,24.45
2018-02-04T07:01:59.077Z,23.92
2018-02-04T07:04:25.546Z,23.17
2018-02-04T07:06:51.928Z,22.65
2018-02-04T07:09:18.369Z,19.83
2018-02-04T07:11:44.763Z,22.15
2018-02-04T07:14:12.020Z,24.00
2018-02-04T07:16:39.378Z,24.08
2018-02-04T07:19:06.510Z,22.92
2018-02-04T07:21:33.742Z,23.15
2018-02-04T07:24:00.146Z,22.30
2018-02-04T07:26:26.592Z,21.80
2018-02-04T07:28:53.007Z,22.60
2018-02-04T07:31:19.411Z,23.12
2018-02-04T07:33:45.807Z,24.52
2018-02-04T07:36:12.222Z,23.90
2018-02-04T07:38:38.654Z,24.17
2018-02-04T07:41:05.117Z,24.80
2018-02-04T07:43:34.285Z,23.35
2018-02-04T07:46:00.874Z,23.75
2018-02-04T07:48:27.307Z,19.15
2018-02-04T07:50:53.698Z,17.55
2018-02-04T08:00:38.804Z,18.23
2018-02-04T08:03:05.238Z,18.62
2018-02-04T08:05:31.649Z,17.95
2018-02-04T08:07:58.023Z,19.20
2018-02-04T08:10:24.440Z,18.85
2018-02-04T08:12:50.809Z,17.87
2018-02-04T08:15:17.234Z,18.95
2018-02-04T08:17:43.688Z,18.52
2018-02-04T08:20:10.729Z,20.00
2018-02-04T08:22:37.151Z,18.92
2018-02-04T08:25:03.599Z,19.00
2018-02-04T08:27:30.022Z,19.12
2018-02-04T08:29:56.433Z,21.95
2018-02-04T08:32:22.874Z,19.40
2018-02-04T08:34:49.468Z,18.85
2018-02-04T08:37:16.683Z,21.55
2018-02-04T08:39:43.117Z,19.77
2018-02-04T08:42:09.494Z,25.95
2018-02-04T08:44:35.986Z,25.92
2018-02-04T08:47:02.466Z,21.35
2018-02-04T08:49:28.894Z,20.23
2018-02-04T08:51:56.072Z,20.67
2018-02-04T08:54:23.239Z,26.05
2018-02-04T08:56:49.646Z,21.02
2018-02-04T08:59:17.249Z,20.77
2018-02-04T09:01:43.661Z,20.37
2018-02-04T09:04:10.826Z,17.77
2018-02-04T09:06:37.214Z,17.25
2018-02-04T09:09:03.746Z,17.98
2018-02-04T09:11:30.165Z,16.45
2018-02-04T09:13:56.604Z,15.98
2018-02-04T09:16:23.002Z,21.30
2018-02-04T09:18:49.414Z,22.10
2018-02-04T09:21:16.566Z,21.62
2018-02-04T09:23:43.741Z,21.60
2018-02-04T09:26:10.149Z,20.60
2018-02-04T09:28:37.302Z,19.83
2018-02-04T09:31:04.427Z,19.85
2018-02-04T09:33:37.943Z,19.30
2018-02-04T09:36:05.110Z,19.30
2018-02-04T09:38:32.282Z,20.60
2018-02-04T09:40:58.683Z,19.60
2018-02-04T09:43:25.813Z,19.80
2018-02-04T09:45:52.246Z,20.42
2018-02-04T09:48:18.653Z,21.35
2018-02-04T09:50:45.157Z,21.27
2018-02-04T09:53:11.635Z,21.00
2018-02-04T09:55:38.030Z,23.85
2018-02-04T09:58:05.233Z,26.05
2018-02-04T10:00:31.671Z,19.75
2018-02-04T10:02:58.082Z,18.33
2018-02-04T10:05:24.541Z,21.15
2018-02-04T10:07:51.008Z,19.87
2018-02-04T10:10:18.162Z,23.12
2018-02-04T10:12:45.289Z,20.50
2018-02-04T10:15:11.702Z,21.20
2018-02-04T10:17:38.158Z,20.52
2018-02-04T10:20:04.861Z,21.15
2018-02-04T10:22:31.350Z,20.50
2018-02-04T10:24:58.496Z,19.23
2018-02-04T10:27:24.994Z,19.40
2018-02-04T10:29:51.416Z,20.52
2018-02-04T10:32:17.838Z,17.00
2018-02-04T10:34:44.242Z,14.55
2018-02-04T10:37:11.417Z,13.50
2018-02-04T10:39:37.838Z,13.32
2018-02-04T10:42:04.969Z,12.98
2018-02-04T10:44:31.409Z,11.63
2018-02-04T10:46:58.538Z,12.57
2018-02-04T10:49:24.949Z,12.40
2018-02-04T10:51:57.501Z,13.95
2018-02-04T10:54:23.909Z,12.37
2018-02-04T11:13:55.538Z,6.25
2018-02-04T11:35:59.910Z,7.93
2018-02-04T11:38:26.339Z,8.07
2018-02-04T11:40:52.745Z,11.27
2018-02-04T11:43:20.432Z,10.13
2018-02-04T11:45:47.004Z,8.43
2018-02-04T11:48:13.443Z,10.13
2018-02-04T11:50:39.885Z,7.65
2018-02-04T11:53:06.314Z,8.13
2018-02-04T11:55:32.779Z,10.43
2018-02-04T11:57:59.243Z,10.25
2018-02-04T12:00:25.752Z,14.95
2018-02-04T12:02:52.938Z,9.77
2018-02-04T12:05:19.345Z,10.73
2018-02-04T12:07:45.790Z,9.98
2018-02-04T12:10:12.265Z,11.43
2018-02-04T12:12:38.706Z,15.60
2018-02-04T12:15:05.219Z,16.02
2018-02-04T12:17:31.606Z,19.25
2018-02-04T12:19:58.798Z,16.45
2018-02-04T12:22:25.183Z,18.50
2018-02-04T12:24:52.342Z,17.15
2018-02-04T12:27:19.470Z,15.93
2018-02-04T12:32:12.994Z,15.15
2018-02-04T12:34:40.550Z,13.50
2018-02-04T12:37:07.709Z,14.95
2018-02-04T12:39:34.154Z,15.30
2018-02-04T12:42:05.120Z,14.77
2018-02-04T12:44:34.565Z,16.00
2018-02-04T12:47:11.460Z,14.50
2018-02-04T12:49:43.286Z,15.23
2018-02-04T12:52:10.117Z,18.80
2018-02-04T12:54:36.533Z,16.15
2018-02-04T12:57:02.933Z,14.75
2018-02-04T12:59:29.383Z,16.10
2018-02-04T13:01:55.760Z,15.57
2018-02-04T13:04:22.178Z,18.10
2018-02-04T13:06:48.611Z,16.20
2018-02-04T13:09:15.033Z,13.20
2018-02-04T13:11:41.522Z,15.13
2018-02-04T13:14:08.664Z,12.05
2018-02-04T13:16:35.100Z,10.70
2018-02-04T13:19:01.495Z,9.77
2018-02-04T13:21:28.438Z,8.38
2018-02-04T13:23:54.838Z,7.82
2018-02-04T13:26:22.051Z,8.60
2018-02-04T13:28:48.471Z,8.23
2018-02-04T13:31:14.857Z,9.80
2018-02-04T13:33:42.014Z,7.95
2018-02-04T13:36:09.180Z,10.07
2018-02-04T13:38:36.395Z,9.13
2018-02-04T13:41:02.813Z,7.85
2018-02-04T13:43:29.274Z,7.70
2018-02-04T13:45:57.089Z,6.78
2018-02-04T13:48:23.503Z,8.55
2018-02-04T13:50:50.081Z,6.20
2018-02-04T13:53:16.632Z,6.70
2018-02-04T13:55:43.066Z,6.50
2018-02-04T13:58:10.193Z,8.40
2018-02-04T14:00:36.934Z,7.20
2018-02-04T14:03:07.887Z,8.35
2018-02-04T14:05:37.393Z,8.05
2018-02-04T14:08:08.637Z,7.50
2018-02-04T14:10:41.582Z,7.75
2018-02-04T14:13:10.302Z,8.30
2018-02-04T14:15:36.717Z,11.18
2018-02-04T14:18:03.234Z,9.82
2018-02-04T14:20:31.034Z,5.90
2018-02-04T14:32:44.177Z,2.95
2018-02-04T14:35:10.726Z,2.92
2018-02-04T16:47:05.853Z,12.37
2018-02-04T16:49:32.294Z,13.23
2018-02-04T16:51:58.737Z,14.48
2018-02-04T16:54:25.201Z,14.00
2018-02-04T16:56:51.627Z,13.70
2018-02-04T16:59:18.042Z,14.75
2018-02-04T17:01:44.479Z,13.07
2018-02-04T17:04:11.627Z,14.02
2018-02-04T17:06:38.781Z,15.38
2018-02-04T17:09:05.250Z,14.20
2018-02-04T17:11:31.673Z,17.48
2018-02-04T17:13:58.807Z,16.17
2018-02-04T17:16:25.988Z,17.90
2018-02-04T17:18:52.373Z,16.05
2018-02-04T17:21:18.782Z,15.13
2018-02-04T17:23:45.245Z,14.80
2018-02-04T17:26:11.719Z,15.77
2018-02-04T17:28:38.194Z,15.95
2018-02-04T17:31:05.424Z,16.05
2018-02-04T17:33:31.864Z,15.27
2018-02-04T17:35:58.408Z,16.10
2018-02-04T17:38:24.831Z,13.77
2018-02-04T17:40:51.242Z,21.87
2018-02-04T17:43:18.433Z,26.20
2018-02-04T17:45:45.683Z,31.20
2018-02-04T17:48:12.337Z,27.40
2018-02-04T17:50:39.577Z,29.03
2018-02-04T17:53:06.166Z,32.60
2018-02-04T17:55:33.374Z,31.30
2018-02-04T17:58:06.793Z,31.40
2018-02-04T18:00:33.239Z,28.77
2018-02-04T18:02:59.642Z,27.15
2018-02-04T18:05:26.038Z,31.60
2018-02-04T18:07:53.221Z,25.62
2018-02-04T18:10:19.618Z,25.83
2018-02-04T18:12:46.774Z,24.27
2018-02-04T18:15:13.227Z,18.08
2018-02-04T18:17:39.647Z,20.75
2018-02-04T18:20:06.062Z,20.15
2018-02-04T18:22:33.308Z,23.48
2018-02-04T18:24:59.719Z,24.00
2018-02-04T18:27:26.136Z,24.98
2018-02-04T18:29:52.565Z,24.80
2018-02-04T18:32:19.004Z,24.83
2018-02-04T18:34:45.421Z,25.90
2018-02-04T18:37:11.856Z,25.80
2018-02-04T18:39:38.288Z,24.15
2018-02-04T18:42:04.702Z,24.55
2018-02-04T18:44:31.854Z,22.70
2018-02-04T18:47:00.781Z,21.70
2018-02-04T18:49:27.170Z,22.57
2018-02-04T18:51:54.406Z,23.33
2018-02-04T18:54:20.825Z,25.65
2018-02-04T18:56:47.257Z,28.60
2018-02-04T18:59:13.680Z,26.70
2018-02-04T19:01:40.197Z,23.73
2018-02-04T19:04:06.644Z,24.35
2018-02-04T19:06:33.057Z,23.05
2018-02-04T19:08:59.501Z,21.45
2018-02-04T19:11:25.937Z,22.17
2018-02-04T19:13:52.386Z,24.23
2018-02-04T19:16:18.812Z,21.40
2018-02-04T19:18:45.327Z,20.33
2018-02-04T19:21:11.739Z,22.65
2018-02-04T19:23:38.165Z,22.73
2018-02-04T19:26:04.574Z,23.38
2018-02-04T19:28:30.995Z,23.58
2018-02-04T19:30:57.460Z,24.10
2018-02-04T19:33:23.877Z,23.35
2018-02-04T19:35:50.287Z,25.00
2018-02-04T19:38:16.720Z,23.30
2018-02-04T19:40:43.129Z,24.05
2018-02-04T19:43:10.258Z,23.62
2018-02-04T19:45:36.684Z,27.17
2018-02-04T19:48:03.118Z,27.43
2018-02-04T19:50:29.541Z,27.70
2018-02-04T19:52:55.985Z,21.35
2018-02-04T19:55:22.444Z,19.60
2018-02-04T19:57:49.574Z,20.52
2018-02-04T20:00:15.997Z,19.83
2018-02-04T20:02:42.414Z,25.12
2018-02-04T20:05:08.809Z,20.73
2018-02-04T20:07:35.971Z,20.90
2018-02-04T20:10:02.424Z,25.70
2018-02-04T20:12:28.868Z,37.08
2018-02-04T20:14:55.299Z,26.23
2018-02-04T20:17:21.772Z,26.20
2018-02-04T20:19:48.227Z,26.67
2018-02-04T20:22:15.369Z,21.62
2018-02-04T20:24:42.561Z,25.23
2018-02-04T20:27:08.982Z,33.42
2018-02-04T20:29:35.413Z,23.85
2018-02-04T20:32:01.951Z,40.38
2018-02-04T20:34:40.631Z,46.50
2018-02-04T20:37:07.062Z,37.75
2018-02-04T20:39:34.241Z,54.03
2018-02-04T20:42:01.395Z,36.25
2018-02-04T20:44:28.576Z,28.20
2018-02-04T20:46:54.965Z,31.62
2018-02-04T20:49:21.403Z,33.33
2018-02-04T20:51:47.802Z,26.62
2018-02-04T20:54:14.242Z,24.87
2018-02-04T20:56:40.667Z,31.12
2018-02-04T20:59:07.100Z,34.60
2018-02-04T21:01:33.511Z,26.27
2018-02-04T21:03:59.940Z,33.95
2018-02-04T21:06:26.370Z,28.83
2018-02-04T21:08:53.545Z,35.80
2018-02-04T21:11:19.949Z,34.20
2018-02-04T21:13:47.145Z,40.92
2018-02-04T21:16:13.585Z,38.80
2018-02-04T21:18:40.744Z,36.90
2018-02-04T21:21:07.182Z,47.67
2018-02-04T21:23:33.680Z,50.20
2018-02-04T21:26:00.101Z,42.25
2018-02-04T21:28:27.261Z,44.53
2018-02-04T21:30:53.682Z,46.42
2018-02-04T21:33:20.810Z,47.00
2018-02-04T21:35:47.233Z,48.65
2018-02-04T21:38:14.406Z,51.72
2018-02-04T21:40:41.588Z,56.53
2018-02-04T21:43:08.001Z,74.53
2018-02-04T21:45:35.144Z,72.68
2018-02-04T21:48:02.357Z,74.80
2018-02-04T21:50:28.809Z,82.80
2018-02-04T21:52:55.265Z,86.72
2018-02-04T21:55:21.740Z,82.80
2018-02-04T21:57:48.165Z,81.75
2018-02-04T22:00:14.622Z,90.65
2018-02-04T22:02:41.032Z,78.43
2018-02-04T22:05:07.474Z,72.82
2018-02-04T22:07:33.962Z,72.85
2018-02-04T22:10:00.387Z,83.30
2018-02-04T22:12:26.806Z,78.18
2018-02-04T22:14:53.198Z,77.28
2018-02-04T22:17:20.364Z,72.95
2018-02-04T22:19:46.746Z,63.90
2018-02-04T22:22:13.172Z,64.60
2018-02-04T22:24:39.608Z,69.57
2018-02-04T22:27:05.998Z,68.68
2018-02-04T22:29:32.412Z,68.12
2018-02-04T22:31:59.557Z,70.25
2018-02-04T22:34:25.977Z,70.10
2018-02-04T22:36:52.363Z,68.60
2018-02-04T22:39:18.803Z,74.33
2018-02-04T22:41:45.220Z,65.43
2018-02-04T22:44:11.613Z,74.50
2018-02-04T22:46:38.046Z,68.12
2018-02-04T22:49:04.459Z,66.60
2018-02-04T22:51:30.910Z,64.93
2018-02-04T22:53:57.520Z,73.97
2018-02-04T22:56:23.915Z,68.43
2018-02-04T22:58:51.082Z,66.53
2018-02-04T23:01:17.540Z,66.10
2018-02-04T23:03:43.964Z,67.67
2018-02-04T23:06:10.354Z,74.03
2018-02-04T23:08:36.852Z,69.70
2018-02-04T23:11:03.399Z,78.40
2018-02-04T23:13:29.821Z,75.68
2018-02-04T23:15:56.232Z,75.40
2018-02-04T23:18:22.615Z,75.82
2018-02-04T23:20:49.076Z,74.25
2018-02-04T23:23:16.220Z,74.60
2018-02-04T23:25:43.384Z,78.37
2018-02-04T23:28:10.525Z,68.12
2018-02-04T23:30:37.665Z,72.95
2018-02-04T23:33:04.093Z,64.32
2018-02-04T23:35:30.511Z,63.50
2018-02-04T23:37:56.969Z,65.28
2018-02-04T23:40:23.398Z,63.20
2018-02-04T23:42:49.793Z,63.92
2018-02-04T23:45:16.231Z,61.95
2018-02-04T23:47:42.632Z,62.38
2018-02-04T23:50:09.796Z,57.55
2018-02-04T23:52:36.239Z,55.75
2018-02-04T23:55:02.794Z,51.53
2018-02-04T23:57:29.215Z,55.65
2018-02-04T23:59:55.693Z,57.22
